Singapore, Singapore

8:52 AM SGT on October 26, 2014 (GMT +0800)
Changi | Change Station
CLOSE
Current Station
Airport
Location: Singapore,
Elevation: 52 ft
Nearby Weather Stations

Elev 52 ft 1.37 °N, 103.98 °E | Updated 22 minutes ago

Mostly Cloudy
Mostly Cloudy
86 °F
Feels Like 97 °F
N
5
Wind Variable Wind from East

Today
High -- | Low -- °F
--% Chance of Precip.
Yesterday
High -- | Low -- °F
Precip. -- in
6:45 AM 6:50 PM
Waxing Crescent, 5% visible
Pressure 29.92 in
Visibility 6.2 miles
Clouds Few 1500 ft
Mostly Cloudy 30000 ft
Heat Index 97 °F
Dew Point 77 °F
Humidity 74%
Rainfall 0.00 in
Snow Depth Not available.
UV 1 out of 12
Pollen Not available.
Air Quality Not available.
Flu Activity Not available.
METAR WSSS 260030Z 09004KT 350V130 9999 FEW015 BKN300 30/25 Q1013 NOSIG

More Conditions Fewer Conditions

Pressure 29.92 in
Visibility 6.2 miles
Clouds Few 1500 ft
Mostly Cloudy 30000 ft
Heat Index 97 °F
Dew Point 77 °F
Humidity 74%
Rainfall 0.00 in
Snow Depth Not available.
UV 1 out of 12
Pollen Not available.
Air Quality Not available.
Flu Activity Not available.
METAR WSSS 260030Z 09004KT 350V130 9999 FEW015 BKN300 30/25 Q1013 NOSIG

More Conditions Fewer Conditions

10-Day Weather Forecast

Almanac

Astronomy

Oct. 26, 2014 Rise Set
Actual Time 6:45 AM SGT 6:50 PM SGT
Civil Twilight 6:24 AM SGT 7:11 PM SGT
Nautical Twilight 6:00 AM SGT 7:35 PM SGT
Astronomical Twilight 5:35 AM SGT 8:00 PM SGT
Moon 8:33 AM SGT 8:55 PM SGT
Length of Visible Light 12h 46m
Length of Day
12h 04m
Tomorrow will be 0m 4s shorter.
Waxing Crescent, 5% of the Moon is Illuminated
Oct 25
Waxing Crescent
Oct 30
First Quarter
Nov 6
Full
Nov 14
Last Quarter
Nov 22
New

Yesterday's Extremes

Country Highs Country Lows

Community

WunderPhotos

Upload Photos

1,765,052 photos uploaded!

Nearby

Snow Depth

Not available.

Earthquake Activity

City Distance Mag. Time & Date
No recent earthquake activity has been reported nearby.
Minimum magnitude displayed is 2.5.

Coastal Water Temperatures

Place Temperature
No Stations Reporting

Nearby Weather Stations